Time;durP1;ratioP1;P1;durP2;ratioP2;P2;SDS_P1;SDS_P2;PMS_P1;PMS_P2;Temp;Humidity;BMP_temperature;BMP_pressure;BME280_temperature;BME280_humidity;BME280_pressure;Samples;Min_cycle;Max_cycle;Signal;HPM_P1;HPM_P2
2022/01/14 00:00:44;;;;;;;82.53;22.40;;;1.10;99.90;;;;;;5034208;28;20466;-72
2022/01/14 00:03:11;;;;;;;65.33;22.90;;;1.20;99.90;;;;;;5029950;28;20593;-72
2022/01/14 00:05:37;;;;;;;47.83;21.93;;;;;;;;;;5027722;28;20651;-72
2022/01/14 00:08:03;;;;;;;68.83;23.30;;;;;;;;;;5025425;28;20502;-69
2022/01/14 00:10:31;;;;;;;48.33;21.60;;;1.30;99.90;;;;;;5019381;28;20181;-71
2022/01/14 00:13:05;;;;;;;44.30;20.47;;;1.30;99.90;;;;;;5030997;28;20423;-70
2022/01/14 00:15:34;;;;;;;43.90;21.07;;;1.60;99.90;;;;;;5028187;28;20424;-69
2022/01/14 00:18:01;;;;;;;51.03;21.83;;;1.30;99.90;;;;;;5028443;28;20894;-70
2022/01/14 00:20:27;;;;;;;39.03;21.00;;;1.30;99.90;;;;;;5030184;28;20888;-70
2022/01/14 00:22:53;;;;;;;49.27;22.50;;;1.40;99.90;;;;;;5027570;28;20518;-70
2022/01/14 00:33:29;;;;;;;53.03;21.53;;;1.50;99.90;;;;;;5027766;28;20446;-70
2022/01/14 00:35:54;;;;;;;64.23;23.47;;;1.30;99.90;;;;;;5027854;28;21001;-70
2022/01/14 00:38:20;;;;;;;47.53;23.03;;;;;;;;;;5025547;28;20178;-71
2022/01/14 00:40:46;;;;;;;68.00;22.77;;;1.10;99.90;;;;;;5027783;28;20291;-69
2022/01/14 00:43:12;;;;;;;89.37;22.93;;;1.10;99.90;;;;;;5034829;28;20437;-70
2022/01/14 00:45:39;;;;;;;104.93;23.93;;;1.20;99.90;;;;;;5033244;28;20273;-71
2022/01/14 00:48:06;;;;;;;78.63;23.33;;;;;;;;;;5026308;28;20499;-70
2022/01/14 00:50:33;;;;;;;165.70;28.23;;;1.20;99.90;;;;;;5038893;28;20781;-71
2022/01/14 00:52:59;;;;;;;143.23;24.83;;;1.20;99.90;;;;;;5027334;28;20439;-71
2022/01/14 00:55:38;;;;;;;54.73;23.37;;;1.20;99.90;;;;;;5027874;28;21062;-70
2022/01/14 01:00:49;;;;;;;232.73;27.77;;;;;;;;;;5017319;28;20467;-70
2022/01/14 01:03:15;;;;;;;218.97;27.40;;;;;;;;;;5025625;28;20428;-71
2022/01/14 01:05:41;;;;;;;123.27;25.50;;;;;;;;;;5027422;28;20290;-70
2022/01/14 01:08:12;;;;;;;68.07;24.90;;;1.20;99.90;;;;;;5026738;28;20512;-70
2022/01/14 01:10:49;;;;;;;259.87;30.50;;;;;;;;;;5032390;28;20434;-71
2022/01/14 01:13:30;;;;;;;122.30;26.83;;;;;;;;;;5031193;28;20404;-70
2022/01/14 01:15:56;;;;;;;172.23;26.77;;;0.90;99.90;;;;;;5032280;28;20968;-70
2022/01/14 01:18:22;;;;;;;80.77;24.93;;;0.90;99.90;;;;;;5034935;28;20419;-70
2022/01/14 01:20:48;;;;;;;101.97;24.40;;;1.40;99.90;;;;;;5032545;28;20318;-69
2022/01/14 01:23:15;;;;;;;107.00;25.17;;;0.90;99.90;;;;;;5035990;28;20456;-70
2022/01/14 01:25:46;;;;;;;235.80;25.37;;;1.20;99.90;;;;;;5035990;28;20181;-71
2022/01/14 01:28:12;;;;;;;222.73;25.93;;;;;;;;;;5030363;28;20462;-70
2022/01/14 01:30:50;;;;;;;165.13;25.80;;;0.90;99.90;;;;;;5037845;28;20428;-70
2022/01/14 01:33:16;;;;;;;151.47;27.90;;;0.90;99.90;;;;;;5030675;28;20174;-70
2022/01/14 01:35:43;;;;;;;76.73;23.47;;;;;;;;;;5030493;28;20470;-71
2022/01/14 01:38:15;;;;;;;175.40;24.00;;;;;;;;;;5030781;28;20482;-70
2022/01/14 01:40:42;;;;;;;103.53;21.67;;;0.90;99.90;;;;;;5031967;28;20468;-70
2022/01/14 01:43:09;;;;;;;150.63;24.40;;;0.90;99.90;;;;;;5020445;28;20476;-70
2022/01/14 01:45:36;;;;;;;72.07;22.03;;;0.90;99.90;;;;;;5027034;28;20523;-70
2022/01/14 01:48:01;;;;;;;82.33;21.30;;;0.80;99.90;;;;;;5046457;28;20415;-70
2022/01/14 01:50:30;;;;;;;107.43;22.87;;;0.80;99.90;;;;;;5031487;28;20536;-70
2022/01/14 01:52:56;;;;;;;189.23;27.70;;;0.70;99.90;;;;;;5017725;28;21361;-70
2022/01/14 01:55:23;;;;;;;136.87;22.50;;;0.70;99.90;;;;;;5026232;28;20437;-70
2022/01/14 01:57:50;;;;;;;137.70;21.80;;;0.70;99.90;;;;;;5047710;28;20483;-71
2022/01/14 02:00:19;;;;;;;84.60;20.60;;;0.80;99.90;;;;;;5034007;28;20467;-70
2022/01/14 02:02:47;;;;;;;75.00;18.63;;;;;;;;;;5034784;28;20763;-70
2022/01/14 02:05:13;;;;;;;46.13;19.63;;;0.80;99.90;;;;;;5031003;28;20588;-70
2022/01/14 02:07:40;;;;;;;61.10;20.13;;;0.90;99.90;;;;;;5030100;28;20625;-70
2022/01/14 02:10:06;;;;;;;88.70;21.40;;;0.90;99.90;;;;;;5031044;28;20214;-71
2022/01/14 02:12:46;;;;;;;87.33;20.70;;;0.80;99.90;;;;;;5034023;28;20439;-70
2022/01/14 02:15:28;;;;;;;113.20;20.53;;;1.20;99.90;;;;;;5036791;28;20424;-70
2022/01/14 02:22:10;;;;;;;106.17;22.20;;;0.70;99.90;;;;;;5031912;28;20579;-70
2022/01/14 02:23:30;;;;;;;127.17;21.30;;;0.70;99.90;;;;;;5020204;28;20435;-70
2022/01/14 02:25:56;;;;;;;63.90;21.07;;;1.10;99.90;;;;;;5028336;28;20425;-70
2022/01/14 02:28:21;;;;;;;112.07;23.50;;;0.60;99.90;;;;;;5030011;28;20841;-70
2022/01/14 02:30:48;;;;;;;82.43;21.70;;;;;;;;;;5034904;28;20170;-71
2022/01/14 02:33:16;;;;;;;106.40;21.17;;;-0.70;99.90;;;;;;5029497;28;20178;-69
2022/01/14 02:35:45;;;;;;;83.07;22.93;;;0.80;99.90;;;;;;5028742;28;20931;-70
2022/01/14 02:38:11;;;;;;;64.27;19.10;;;0.90;99.90;;;;;;5029955;28;20455;-70
2022/01/14 02:40:38;;;;;;;37.47;18.17;;;0.80;99.90;;;;;;5028328;28;20455;-71
2022/01/14 02:43:06;;;;;;;107.57;20.57;;;0.90;99.90;;;;;;5033778;28;20448;-70
2022/01/14 02:45:34;;;;;;;160.27;22.97;;;;;;;;;;5029173;28;20473;-70
2022/01/14 02:48:01;;;;;;;149.83;22.53;;;;;;;;;;5027916;28;20424;-69
2022/01/14 02:50:35;;;;;;;127.40;20.57;;;0.90;99.90;;;;;;5042909;28;20451;-69
2022/01/14 02:53:03;;;;;;;97.87;20.77;;;0.80;99.90;;;;;;5032596;28;20439;-69
2022/01/14 02:55:31;;;;;;;81.67;21.00;;;0.80;99.90;;;;;;5028432;28;20945;-70
2022/01/14 02:57:59;;;;;;;76.33;21.10;;;0.80;99.90;;;;;;5029639;28;20417;-69
2022/01/14 03:00:29;;;;;;;113.70;20.03;;;0.70;99.90;;;;;;5029906;28;20930;-70
2022/01/14 03:02:58;;;;;;;100.43;18.57;;;0.70;99.90;;;;;;5027838;28;20878;-70
2022/01/14 03:05:24;;;;;;;72.97;18.33;;;;;;;;;;5030653;28;20467;-70
2022/01/14 03:07:50;;;;;;;61.30;19.20;;;;;;;;;;5047364;28;20413;-70
2022/01/14 03:10:18;;;;;;;91.07;21.00;;;0.70;99.90;;;;;;5033720;28;20939;-70
2022/01/14 03:12:44;;;;;;;70.17;21.33;;;1.00;99.90;;;;;;5038250;28;20850;-70
2022/01/14 03:15:11;;;;;;;73.83;21.97;;;0.60;99.90;;;;;;5030400;28;20441;-70
2022/01/14 03:17:37;;;;;;;59.73;19.50;;;0.60;99.90;;;;;;5039967;28;20516;-70
2022/01/14 03:20:05;;;;;;;112.97;19.83;;;0.60;99.90;;;;;;5031986;28;21005;-70
2022/01/14 03:22:37;;;;;;;69.90;18.47;;;0.60;99.90;;;;;;5043203;28;20193;-70
2022/01/14 03:27:53;;;;;;;84.03;19.70;;;0.70;99.90;;;;;;5029378;28;20555;-70
2022/01/14 03:30:19;;;;;;;84.50;19.87;;;0.70;99.90;;;;;;5036726;28;20453;-70
2022/01/14 03:32:45;;;;;;;79.90;19.20;;;0.70;99.90;;;;;;5034017;28;20476;-70
2022/01/14 03:35:11;;;;;;;67.53;19.60;;;1.10;99.90;;;;;;5027089;28;20182;-70
2022/01/14 03:37:37;;;;;;;46.93;18.53;;;0.60;99.90;;;;;;5028342;28;20495;-70
2022/01/14 03:40:05;;;;;;;68.93;19.73;;;0.70;99.90;;;;;;5036749;28;20997;-70
2022/01/14 03:42:30;;;;;;;90.17;20.50;;;0.60;99.90;;;;;;5035613;28;20178;-70
2022/01/14 03:44:56;;;;;;;60.80;19.33;;;0.50;99.90;;;;;;5026730;28;20436;-70
2022/01/14 03:47:22;;;;;;;87.77;19.63;;;0.50;99.90;;;;;;5036224;28;20174;-70
2022/01/14 03:49:47;;;;;;;75.23;19.07;;;0.40;99.90;;;;;;5028445;28;20205;-70
2022/01/14 03:52:14;;;;;;;83.70;20.50;;;0.70;99.90;;;;;;5039393;28;20625;-70
2022/01/14 03:54:40;;;;;;;64.27;20.37;;;;;;;;;;5028613;28;20177;-70
2022/01/14 03:57:06;;;;;;;61.47;18.90;;;;;;;;;;5030445;28;20409;-71
2022/01/14 03:59:32;;;;;;;46.23;18.27;;;0.50;99.90;;;;;;5022281;28;20428;-69
2022/01/14 04:01:57;;;;;;;50.03;17.50;;;0.50;99.90;;;;;;5035982;28;20412;-70
2022/01/14 04:04:23;;;;;;;72.70;17.20;;;0.50;99.90;;;;;;5037287;28;20246;-70
2022/01/14 04:06:48;;;;;;;78.07;18.60;;;0.90;99.90;;;;;;5028661;28;20174;-70
2022/01/14 04:09:14;;;;;;;64.23;18.80;;;0.40;99.90;;;;;;5035574;28;20290;-70
2022/01/14 04:11:40;;;;;;;73.97;19.90;;;0.00;99.90;;;;;;5037662;28;20620;-70
2022/01/14 04:15:36;;;;;;;47.00;18.13;;;;;;;;;;5044998;28;20226;-70
2022/01/14 04:16:52;;;;;;;50.77;17.43;;;0.40;99.90;;;;;;5027758;28;20193;-70
2022/01/14 04:19:17;;;;;;;38.23;15.87;;;0.40;99.90;;;;;;5031391;28;20447;-70
2022/01/14 04:21:43;;;;;;;54.67;16.50;;;0.40;99.90;;;;;;5031505;28;20460;-70
2022/01/14 04:24:09;;;;;;;47.07;17.47;;;0.40;99.90;;;;;;5035303;28;20304;-70
2022/01/14 04:26:34;;;;;;;43.13;16.93;;;0.40;99.90;;;;;;5022090;28;20217;-69
2022/01/14 04:29:00;;;;;;;42.67;17.33;;;0.40;99.90;;;;;;5028352;28;20193;-70
2022/01/14 04:31:25;;;;;;;62.93;17.43;;;0.70;99.90;;;;;;5028601;28;20201;-70
2022/01/14 04:33:51;;;;;;;40.97;15.57;;;;;;;;;;5039449;28;20181;-70
2022/01/14 04:36:17;;;;;;;54.13;16.60;;;0.40;99.90;;;;;;5041713;28;20191;-70
2022/01/14 04:38:43;;;;;;;68.30;16.70;;;;;;;;;;5034844;28;20686;-70
2022/01/14 04:41:09;;;;;;;51.80;16.20;;;0.40;99.90;;;;;;5036853;28;20262;-71
2022/01/14 04:43:35;;;;;;;46.97;18.23;;;0.90;99.90;;;;;;5027200;28;20894;-70
2022/01/14 04:48:28;;;;;;;112.80;18.23;;;;;;;;;;5027539;28;20535;-70
2022/01/14 04:50:54;;;;;;;53.73;18.37;;;0.40;99.90;;;;;;5026073;28;20715;-70
2022/01/14 04:53:21;;;;;;;49.07;17.60;;;0.30;99.90;;;;;;5028254;28;20433;-70
2022/01/14 04:55:47;;;;;;;51.70;16.90;;;0.40;99.90;;;;;;5037374;28;20561;-71
2022/01/14 04:58:13;;;;;;;68.80;19.10;;;0.40;99.90;;;;;;5034489;28;20566;-70
2022/01/14 05:00:39;;;;;;;45.80;16.93;;;0.40;99.90;;;;;;5034225;28;20584;-71
2022/01/14 05:03:06;;;;;;;52.93;16.07;;;0.40;99.90;;;;;;5038917;28;20165;-70
2022/01/14 05:05:34;;;;;;;122.87;18.63;;;0.40;99.90;;;;;;5031042;28;20429;-71
2022/01/14 05:08:00;;;;;;;72.53;17.23;;;0.30;99.90;;;;;;5029783;28;20416;-70
2022/01/14 05:12:54;;;;;;;46.83;16.40;;;;;;;;;;5037357;28;20186;-70
2022/01/14 05:15:20;;;;;;;78.10;17.30;;;0.10;99.90;;;;;;5034134;28;20902;-69
2022/01/14 05:17:47;;;;;;;54.90;18.00;;;0.20;99.90;;;;;;5036478;28;20268;-70
2022/01/14 05:20:14;;;;;;;79.77;18.63;;;0.20;99.90;;;;;;5031225;28;20216;-70
2022/01/14 05:22:40;;;;;;;70.37;18.30;;;0.20;99.90;;;;;;5041410;28;20427;-69
2022/01/14 05:25:07;;;;;;;130.53;18.73;;;0.70;99.90;;;;;;5041371;28;20424;-70
2022/01/14 05:27:35;;;;;;;88.27;21.07;;;0.40;99.90;;;;;;5032264;28;20178;-70
2022/01/14 05:30:01;;;;;;;109.40;19.40;;;0.30;99.90;;;;;;5030866;28;20451;-70
2022/01/14 05:32:27;;;;;;;108.43;18.60;;;0.30;99.90;;;;;;5031789;28;20488;-70
2022/01/14 05:34:53;;;;;;;55.37;17.00;;;0.10;99.90;;;;;;5038067;28;20177;-70
2022/01/14 05:37:19;;;;;;;116.27;20.07;;;0.10;99.90;;;;;;5033220;28;20414;-70
2022/01/14 05:39:44;;;;;;;81.23;18.07;;;0.10;99.90;;;;;;5029328;28;20241;-70
2022/01/14 05:42:10;;;;;;;162.10;19.67;;;0.20;99.90;;;;;;5039361;28;20246;-71
2022/01/14 05:44:37;;;;;;;121.50;19.93;;;0.20;99.90;;;;;;5030831;28;20372;-71
2022/01/14 05:47:03;;;;;;;179.80;19.77;;;0.40;99.90;;;;;;5043026;28;20888;-70
2022/01/14 05:49:29;;;;;;;84.83;17.43;;;0.20;99.90;;;;;;5051192;28;20462;-70
2022/01/14 05:51:55;;;;;;;111.87;19.57;;;0.20;99.90;;;;;;5031543;28;20452;-70
2022/01/14 05:54:21;;;;;;;79.07;19.27;;;0.20;99.90;;;;;;5025646;28;20260;-70
2022/01/14 05:56:47;;;;;;;131.00;21.40;;;0.00;99.90;;;;;;5030651;28;20190;-69
2022/01/14 05:59:14;;;;;;;60.97;18.00;;;-0.10;99.90;;;;;;5031451;28;20436;-70
2022/01/14 06:01:40;;;;;;;123.77;20.07;;;-0.30;99.90;;;;;;5032419;28;20463;-71
2022/01/14 06:04:07;;;;;;;67.87;16.67;;;-0.20;99.90;;;;;;5028388;28;20444;-70
2022/01/14 06:06:33;;;;;;;174.23;19.60;;;-0.20;99.90;;;;;;5031834;28;20423;-71
2022/01/14 06:08:59;;;;;;;174.47;19.37;;;-0.20;99.90;;;;;;5033859;28;20455;-71
2022/01/14 06:11:26;;;;;;;82.33;18.80;;;-0.20;99.90;;;;;;5036972;28;20432;-70
2022/01/14 06:13:52;;;;;;;200.30;20.63;;;-0.30;99.90;;;;;;5033625;28;20184;-71
2022/01/14 06:16:17;;;;;;;188.30;20.50;;;-0.40;99.90;;;;;;5037219;28;20440;-69
2022/01/14 06:18:44;;;;;;;69.43;17.63;;;;;;;;;;5029593;28;20523;-71
2022/01/14 06:21:09;;;;;;;106.57;17.90;;;-0.60;99.90;;;;;;5029302;28;20717;-71
2022/01/14 06:23:35;;;;;;;90.27;18.50;;;-0.60;99.90;;;;;;5034966;28;20480;-71
2022/01/14 06:26:01;;;;;;;100.97;19.80;;;-0.60;99.90;;;;;;5030432;28;20213;-71
2022/01/14 06:28:27;;;;;;;111.33;19.53;;;;;;;;;;5030393;28;20378;-71
2022/01/14 06:30:53;;;;;;;62.03;17.70;;;-0.60;99.90;;;;;;5033573;28;20608;-70
2022/01/14 06:33:19;;;;;;;63.20;18.03;;;-0.50;99.90;;;;;;5046896;28;20180;-70
2022/01/14 06:35:45;;;;;;;79.50;18.70;;;;;;;;;;5036881;28;20305;-70
2022/01/14 06:38:11;;;;;;;52.00;18.33;;;;;;;;;;5029547;28;20208;-69
2022/01/14 06:40:38;;;;;;;40.00;18.57;;;-0.50;99.90;;;;;;5038636;28;20896;-71
2022/01/14 06:43:05;;;;;;;42.97;17.80;;;-0.60;99.90;;;;;;5043486;28;20508;-71
2022/01/14 06:45:32;;;;;;;94.73;19.20;;;;;;;;;;5031150;28;20894;-71
2022/01/14 06:47:58;;;;;;;98.43;18.40;;;-0.60;99.90;;;;;;5044928;28;20432;-71
2022/01/14 06:50:24;;;;;;;84.30;20.60;;;-0.80;99.90;;;;;;5038951;28;20442;-70
2022/01/14 06:52:50;;;;;;;56.13;18.93;;;;;;;;;;5040719;28;20408;-70
2022/01/14 06:55:16;;;;;;;46.47;17.77;;;-0.80;99.90;;;;;;5037838;28;20954;-70
2022/01/14 06:57:42;;;;;;;46.63;18.00;;;-0.80;99.90;;;;;;5036665;28;20420;-71
2022/01/14 07:00:11;;;;;;;70.17;17.80;;;-0.70;99.90;;;;;;5033747;28;20217;-71
2022/01/14 07:02:37;;;;;;;58.43;17.37;;;;;;;;;;5029331;28;20174;-72
2022/01/14 07:05:04;;;;;;;62.53;17.93;;;-0.70;99.90;;;;;;5037616;28;20423;-72
2022/01/14 07:07:29;;;;;;;102.30;19.30;;;-0.80;99.90;;;;;;5031435;28;20495;-71
2022/01/14 07:09:58;;;;;;;106.88;23.98;;;-0.80;99.90;;;;;;5011537;28;20429;-71
2022/01/14 07:12:31;;;;;;;93.87;20.50;;;-0.90;99.90;;;;;;5033190;28;20557;-71
2022/01/14 07:15:01;;;;;;;68.40;20.37;;;-0.80;99.90;;;;;;5023993;28;20444;-70
2022/01/14 07:17:27;;;;;;;49.60;18.40;;;;;;;;;;5027150;28;20479;-71
2022/01/14 07:19:55;;;;;;;38.77;17.80;;;-0.80;99.90;;;;;;5035203;28;20667;-71
2022/01/14 07:22:21;;;;;;;36.37;18.37;;;-0.70;99.90;;;;;;5034623;28;20497;-70
2022/01/14 07:24:47;;;;;;;38.67;18.00;;;-0.70;99.90;;;;;;5031432;28;20431;-71
2022/01/14 07:27:14;;;;;;;34.33;17.70;;;-0.60;99.90;;;;;;5032647;28;20430;-71
2022/01/14 07:29:40;;;;;;;39.23;18.20;;;-0.60;99.90;;;;;;5028328;28;20817;-70
2022/01/14 07:32:05;;;;;;;44.67;17.83;;;-0.60;99.90;;;;;;5024223;28;20516;-70
2022/01/14 07:34:31;;;;;;;41.47;17.07;;;-0.60;99.90;;;;;;5036709;28;20519;-71
2022/01/14 07:36:57;;;;;;;68.60;19.20;;;-0.10;99.90;;;;;;5032553;28;20416;-72
2022/01/14 07:39:23;;;;;;;38.80;18.80;;;;;;;;;;5034873;28;20591;-70
2022/01/14 07:41:50;;;;;;;41.97;17.80;;;;;;;;;;5035060;28;20209;-72
2022/01/14 07:44:15;;;;;;;50.33;17.80;;;-0.60;99.90;;;;;;5028179;28;20429;-70
2022/01/14 07:46:42;;;;;;;54.70;16.63;;;;;;;;;;5032789;28;20526;-69
2022/01/14 07:49:08;;;;;;;41.43;17.30;;;-0.60;99.90;;;;;;5026849;28;20694;-70
2022/01/14 07:51:34;;;;;;;36.73;17.67;;;;;;;;;;5030766;28;20439;-70
2022/01/14 07:54:05;;;;;;;41.60;18.50;;;;;;;;;;5030692;28;20485;-71
2022/01/14 07:56:35;;;;;;;48.03;17.63;;;-0.60;99.90;;;;;;5028037;28;20482;-71
2022/01/14 07:59:00;;;;;;;35.93;17.07;;;-0.40;99.90;;;;;;5031894;28;20942;-71
2022/01/14 08:01:27;;;;;;;46.83;18.10;;;-0.30;99.90;;;;;;5033232;28;20509;-71
2022/01/14 08:03:53;;;;;;;39.83;17.50;;;;;;;;;;5031698;28;20174;-71
2022/01/14 08:06:19;;;;;;;42.50;17.40;;;-0.30;99.90;;;;;;5037993;28;20405;-71
2022/01/14 08:08:45;;;;;;;65.00;17.40;;;-0.20;99.90;;;;;;5028847;28;20535;-70
2022/01/14 08:11:10;;;;;;;53.27;17.20;;;-0.30;99.90;;;;;;5029532;28;20189;-72
2022/01/14 08:13:36;;;;;;;59.87;19.57;;;-0.30;99.90;;;;;;5034797;28;20185;-71
2022/01/14 08:16:02;;;;;;;49.70;19.90;;;-0.20;99.90;;;;;;5037044;28;20213;-70
2022/01/14 08:18:28;;;;;;;44.27;18.90;;;-0.20;99.90;;;;;;5031193;28;20209;-71
2022/01/14 08:20:54;;;;;;;46.53;19.20;;;-0.10;99.90;;;;;;5022489;28;20209;-71
2022/01/14 08:23:19;;;;;;;49.60;20.53;;;0.30;99.90;;;;;;5036995;28;20578;-71
2022/01/14 08:25:49;;;;;;;51.03;20.40;;;0.10;99.90;;;;;;5028519;28;20681;-70
2022/01/14 08:28:15;;;;;;;90.70;19.50;;;0.10;99.90;;;;;;5027213;28;20265;-71
2022/01/14 08:30:40;;;;;;;61.30;21.00;;;0.10;99.90;;;;;;5027384;28;20520;-71
2022/01/14 08:33:06;;;;;;;66.87;20.37;;;;;;;;;;5030649;28;20519;-71
2022/01/14 08:35:32;;;;;;;46.77;21.33;;;-0.10;99.90;;;;;;5030026;28;20584;-70
2022/01/14 08:37:57;;;;;;;89.27;22.53;;;0.20;99.90;;;;;;5022580;28;20526;-70
2022/01/14 08:40:23;;;;;;;57.00;21.67;;;0.20;99.90;;;;;;5025450;28;20230;-71
2022/01/14 08:42:53;;;;;;;67.63;20.30;;;0.30;99.90;;;;;;5032737;28;20261;-70
2022/01/14 08:45:21;;;;;;;64.23;22.20;;;0.30;99.90;;;;;;5025235;28;20204;-71
2022/01/14 08:47:47;;;;;;;69.37;23.33;;;0.40;99.90;;;;;;5027605;28;20736;-71
2022/01/14 08:50:14;;;;;;;61.83;22.40;;;;;;;;;;5025490;28;20814;-71
2022/01/14 08:52:39;;;;;;;72.40;22.40;;;0.70;99.90;;;;;;5029410;28;20420;-73
2022/01/14 08:55:05;;;;;;;56.90;22.37;;;0.70;99.90;;;;;;5029749;28;20490;-71
2022/01/14 08:57:31;;;;;;;53.27;22.70;;;0.70;99.90;;;;;;5040139;28;20207;-70
2022/01/14 08:59:56;;;;;;;73.97;23.07;;;0.90;99.90;;;;;;5027558;28;20472;-71
2022/01/14 09:02:22;;;;;;;65.00;22.37;;;0.90;99.90;;;;;;5025653;28;20184;-71
2022/01/14 09:04:48;;;;;;;71.80;23.63;;;0.90;99.90;;;;;;5028434;28;20185;-71
2022/01/14 09:07:13;;;;;;;87.00;21.60;;;0.90;99.90;;;;;;5025601;28;20184;-71
2022/01/14 09:09:39;;;;;;;109.73;24.03;;;0.90;99.90;;;;;;5026201;28;20275;-71
2022/01/14 09:12:05;;;;;;;102.60;25.83;;;1.00;99.90;;;;;;5026022;28;20682;-72
2022/01/14 09:14:30;;;;;;;76.47;23.87;;;1.00;99.90;;;;;;5023621;28;20174;-70
2022/01/14 09:16:56;;;;;;;74.27;22.60;;;;;;;;;;5025880;28;20204;-71
2022/01/14 09:19:22;;;;;;;104.93;22.87;;;1.00;99.90;;;;;;5032390;28;20594;-71
2022/01/14 09:21:48;;;;;;;100.33;24.60;;;;;;;;;;5031627;28;20823;-71
2022/01/14 09:24:14;;;;;;;80.60;22.63;;;;;;;;;;5031816;28;20413;-71
2022/01/14 09:26:40;;;;;;;68.63;22.30;;;;;;;;;;5031857;28;20185;-70
2022/01/14 09:29:07;;;;;;;99.47;24.37;;;1.10;99.90;;;;;;5026051;28;20271;-71
2022/01/14 09:31:33;;;;;;;86.97;24.67;;;1.10;99.90;;;;;;5026241;28;20593;-71
2022/01/14 09:33:59;;;;;;;77.00;23.40;;;1.10;99.90;;;;;;5022476;28;20519;-71
2022/01/14 09:36:25;;;;;;;106.23;23.67;;;1.20;99.90;;;;;;5033613;28;20218;-70
2022/01/14 09:38:50;;;;;;;98.27;23.83;;;1.30;99.90;;;;;;5029896;28;20769;-71
2022/01/14 09:41:18;;;;;;;126.27;24.87;;;1.30;99.90;;;;;;5035259;28;20573;-72
2022/01/14 09:43:44;;;;;;;161.67;27.03;;;1.40;99.90;;;;;;5029521;28;20268;-71
2022/01/14 09:46:11;;;;;;;63.10;24.57;;;1.50;99.90;;;;;;5032931;28;20440;-71
2022/01/14 09:48:37;;;;;;;103.57;25.07;;;1.60;99.90;;;;;;5029154;28;20452;-71
2022/01/14 09:51:03;;;;;;;186.57;28.70;;;1.60;99.90;;;;;;5032170;28;20522;-71
2022/01/14 09:53:30;;;;;;;112.13;26.47;;;1.50;99.90;;;;;;5033745;28;20919;-72
2022/01/14 09:55:56;;;;;;;90.47;25.40;;;1.80;99.90;;;;;;5029538;28;20469;-70
2022/01/14 09:58:27;;;;;;;104.70;26.07;;;1.50;99.90;;;;;;5030346;28;20758;-70
2022/01/14 10:01:10;;;;;;;131.00;26.07;;;1.50;99.90;;;;;;5032012;28;21115;-70
2022/01/14 10:03:54;;;;;;;79.97;27.30;;;1.60;99.90;;;;;;5035213;28;20896;-72
2022/01/14 10:06:39;;;;;;;136.30;28.53;;;1.50;99.90;;;;;;5035173;28;20499;-72
2022/01/14 10:09:09;;;;;;;176.30;28.90;;;1.60;99.90;;;;;;5029229;28;21033;-71
2022/01/14 10:11:36;;;;;;;87.67;28.30;;;1.60;99.90;;;;;;5028633;28;20865;-71
2022/01/14 10:14:16;;;;;;;140.50;30.37;;;1.70;99.90;;;;;;5027948;28;20618;-71
2022/01/14 10:16:43;;;;;;;112.77;26.57;;;1.80;99.90;;;;;;5032580;28;20977;-70
2022/01/14 10:19:20;;;;;;;139.83;29.10;;;1.70;99.90;;;;;;5033147;28;20487;-71
2022/01/14 10:21:45;;;;;;;86.27;28.63;;;1.80;99.90;;;;;;5032387;28;20467;-70
2022/01/14 10:24:11;;;;;;;100.47;28.80;;;1.90;99.90;;;;;;5035526;28;20425;-71
2022/01/14 10:26:56;;;;;;;97.03;30.10;;;1.90;99.90;;;;;;5028687;28;20184;-71
2022/01/14 10:29:40;;;;;;;117.87;30.53;;;1.90;99.90;;;;;;5031598;28;20483;-71
2022/01/14 10:32:08;;;;;;;82.27;26.93;;;1.90;99.90;;;;;;5036563;28;20416;-70
2022/01/14 10:34:34;;;;;;;68.03;27.30;;;1.90;99.90;;;;;;5027763;28;20486;-71
2022/01/14 10:37:14;;;;;;;78.00;28.27;;;2.00;99.90;;;;;;5030122;28;20447;-70
2022/01/14 10:39:49;;;;;;;78.63;27.60;;;2.30;99.90;;;;;;5030657;28;20455;-71
2022/01/14 10:42:25;;;;;;;83.33;27.93;;;2.30;99.90;;;;;;5032065;28;20805;-71
2022/01/14 10:44:52;;;;;;;72.80;29.27;;;2.30;99.90;;;;;;5043854;28;20415;-71
2022/01/14 10:47:21;;;;;;;83.53;29.00;;;2.50;99.90;;;;;;5037798;28;20440;-72
2022/01/14 10:49:48;;;;;;;110.30;28.97;;;2.40;99.90;;;;;;5034444;28;20439;-71
2022/01/14 10:52:17;;;;;;;96.90;29.60;;;2.30;99.90;;;;;;5037802;28;20424;-72
2022/01/14 10:54:49;;;;;;;83.33;27.07;;;2.20;99.90;;;;;;5026163;28;20436;-71
2022/01/14 10:57:21;;;;;;;74.20;27.40;;;2.30;99.90;;;;;;5026559;28;20419;-72
2022/01/14 10:59:48;;;;;;;77.97;29.10;;;2.40;99.90;;;;;;5028444;28;20543;-70
2022/01/14 11:02:37;;;;;;;72.93;28.53;;;2.30;99.90;;;;;;5037800;28;20540;-69
2022/01/14 11:05:14;;;;;;;83.83;28.67;;;2.20;99.90;;;;;;5025286;28;20424;-72
2022/01/14 11:07:41;;;;;;;106.80;29.87;;;2.30;99.90;;;;;;5037522;28;20434;-71
2022/01/14 11:10:26;;;;;;;80.13;30.30;;;2.30;99.90;;;;;;5033446;28;20462;-72
2022/01/14 11:12:54;;;;;;;86.47;29.07;;;2.40;99.90;;;;;;5031319;28;20431;-71
2022/01/14 11:15:21;;;;;;;90.63;28.20;;;2.40;99.90;;;;;;5031968;28;20424;-71
2022/01/14 11:17:51;;;;;;;88.20;30.50;;;;;;;;;;5046643;28;20411;-71
2022/01/14 11:20:23;;;;;;;89.73;31.07;;;2.50;99.90;;;;;;5029667;28;20658;-71
2022/01/14 11:25:39;;;;;;;91.93;29.17;;;2.40;99.90;;;;;;5027953;28;20511;-71
2022/01/14 11:28:06;;;;;;;122.60;31.10;;;2.60;99.90;;;;;;5028170;28;20803;-72
2022/01/14 11:30:38;;;;;;;97.67;29.73;;;2.60;99.90;;;;;;5028856;28;20452;-71
2022/01/14 11:33:05;;;;;;;83.37;28.87;;;2.60;99.90;;;;;;5037490;28;20492;-72
2022/01/14 11:35:32;;;;;;;71.37;28.40;;;2.50;99.90;;;;;;5030019;28;20899;-70
2022/01/14 11:37:59;;;;;;;76.00;29.23;;;2.60;99.90;;;;;;5037144;28;20420;-71
2022/01/14 11:40:25;;;;;;;75.90;28.67;;;2.70;99.90;;;;;;5028007;28;20609;-71
2022/01/14 11:42:59;;;;;;;78.17;28.80;;;2.80;99.90;;;;;;5029293;28;20503;-71
2022/01/14 11:45:45;;;;;;;75.50;29.70;;;3.00;99.90;;;;;;5028203;28;20186;-71
2022/01/14 11:48:48;;;;;;;103.13;30.63;;;3.00;99.90;;;;;;5032792;28;20411;-72
2022/01/14 11:51:16;;;;;;;89.37;30.17;;;2.90;99.90;;;;;;5025533;28;20514;-71
2022/01/14 11:53:50;;;;;;;85.37;31.80;;;2.80;99.90;;;;;;5015186;28;20432;-71
2022/01/14 11:56:34;;;;;;;103.00;29.30;;;2.80;99.90;;;;;;5039113;28;20425;-71
2022/01/14 11:59:26;;;;;;;88.50;29.07;;;2.80;99.90;;;;;;5028601;28;20535;-71
2022/01/14 12:01:53;;;;;;;93.40;31.47;;;2.70;99.90;;;;;;5013614;28;20514;-71
2022/01/14 12:04:20;;;;;;;97.57;30.10;;;2.60;99.90;;;;;;5027622;28;20499;-71
2022/01/14 12:06:51;;;;;;;105.43;31.07;;;2.40;99.90;;;;;;5040479;28;20932;-71
2022/01/14 12:09:22;;;;;;;92.03;30.90;;;2.80;99.90;;;;;;5028485;28;20851;-71
2022/01/14 12:12:23;;;;;;;87.53;31.67;;;2.90;99.90;;;;;;5028594;28;20487;-71
2022/01/14 12:14:56;;;;;;;72.03;29.90;;;2.90;99.90;;;;;;4982101;28;20860;-72
2022/01/14 12:17:37;;;;;;;78.40;32.20;;;3.40;99.90;;;;;;5033844;28;20424;-71
2022/01/14 12:20:11;;;;;;;119.33;32.47;;;3.10;99.90;;;;;;5030815;28;20575;-72
2022/01/14 12:22:38;;;;;;;95.53;30.30;;;3.10;99.90;;;;;;5020990;28;20424;-73
2022/01/14 12:25:05;;;;;;;111.80;33.40;;;3.40;99.90;;;;;;5030383;28;20439;-72
2022/01/14 12:27:41;;;;;;;96.80;32.90;;;2.90;99.90;;;;;;5027793;28;20520;-71
2022/01/14 12:30:10;;;;;;;95.27;33.00;;;3.00;99.90;;;;;;5031912;28;20500;-71
2022/01/14 12:32:39;;;;;;;99.87;32.40;;;3.00;99.90;;;;;;5030885;28;20455;-71
2022/01/14 12:35:19;;;;;;;90.70;31.13;;;2.90;99.90;;;;;;5028684;28;20901;-71
2022/01/14 12:37:56;;;;;;;89.13;31.70;;;2.80;99.90;;;;;;5033782;28;20415;-70
2022/01/14 12:40:26;;;;;;;92.37;33.87;;;2.80;99.90;;;;;;5029629;28;20470;-71
2022/01/14 12:42:56;;;;;;;98.47;31.93;;;3.00;99.90;;;;;;5028462;28;20459;-71
2022/01/14 12:45:33;;;;;;;93.03;31.33;;;;;;;;;;5028333;28;20793;-71
2022/01/14 12:48:33;;;;;;;102.67;34.30;;;2.80;99.90;;;;;;5024873;28;20910;-71
2022/01/14 12:51:11;;;;;;;101.17;33.00;;;2.80;99.90;;;;;;5009593;28;20451;-71
2022/01/14 12:53:36;;;;;;;93.67;33.90;;;2.80;99.90;;;;;;5026943;28;20558;-70
2022/01/14 12:56:15;;;;;;;87.40;32.50;;;2.80;99.90;;;;;;5028231;28;20499;-72
2022/01/14 12:58:51;;;;;;;86.90;31.40;;;2.90;99.90;;;;;;5021855;28;20209;-71
2022/01/14 13:01:17;;;;;;;92.00;30.97;;;2.90;99.90;;;;;;5026395;28;20455;-70
2022/01/14 13:03:43;;;;;;;85.93;33.60;;;;;;;;;;5028654;28;20840;-71
2022/01/14 13:06:08;;;;;;;83.50;32.87;;;3.00;99.90;;;;;;5028602;28;20178;-72
2022/01/14 13:08:34;;;;;;;91.50;32.90;;;3.00;99.90;;;;;;5027155;28;20460;-73
2022/01/14 13:11:06;;;;;;;110.10;33.57;;;3.00;99.90;;;;;;5028198;28;20184;-71
2022/01/14 13:13:32;;;;;;;99.07;33.20;;;3.10;99.90;;;;;;5028568;28;20621;-71
2022/01/14 13:16:05;;;;;;;96.37;35.37;;;3.40;99.90;;;;;;5042504;28;20408;-71